createdAt,value
2023-05-08T00:01:30.885Z,3.88
2023-05-08T00:05:34.028Z,3.55
2023-05-08T00:09:36.928Z,3.85
2023-05-08T00:13:41.285Z,4.40
2023-05-08T00:17:45.491Z,3.65
2023-05-08T00:21:48.269Z,4.07
2023-05-08T00:25:51.080Z,3.65
2023-05-08T00:29:53.912Z,3.90
2023-05-08T00:33:58.251Z,4.35
2023-05-08T00:38:01.633Z,4.70
2023-05-08T00:42:04.642Z,4.10
2023-05-08T00:46:09.627Z,3.85
2023-05-08T00:50:15.277Z,6.40
2023-05-08T00:54:18.552Z,4.53
2023-05-08T00:58:22.750Z,4.78
2023-05-08T01:02:25.863Z,4.00
2023-05-08T01:06:31.750Z,3.97
2023-05-08T01:10:47.858Z,4.85
2023-05-08T01:15:02.207Z,4.50
2023-05-08T01:19:15.578Z,4.53
2023-05-08T01:23:57.435Z,4.57
2023-05-08T01:28:17.032Z,4.55
2023-05-08T01:32:24.675Z,4.35
2023-05-08T01:36:35.661Z,3.90
2023-05-08T01:40:53.988Z,4.32
2023-05-08T01:45:01.137Z,4.97
2023-05-08T01:49:09.235Z,4.15
2023-05-08T01:53:20.475Z,4.60
2023-05-08T01:57:25.219Z,5.00
2023-05-08T02:01:30.197Z,4.90
2023-05-08T02:05:37.892Z,4.45
2023-05-08T02:09:42.288Z,4.88
2023-05-08T02:13:46.683Z,4.28
2023-05-08T02:17:51.393Z,4.50
2023-05-08T02:21:59.719Z,4.63
2023-05-08T02:26:04.595Z,4.68
2023-05-08T02:30:09.232Z,5.18
2023-05-08T02:34:13.617Z,4.60
2023-05-08T02:38:20.754Z,5.60
2023-05-08T02:42:23.650Z,4.95
2023-05-08T02:46:33.854Z,5.10
2023-05-08T02:50:42.671Z,6.03
2023-05-08T02:54:54.715Z,6.93
2023-05-08T02:59:04.391Z,8.13
2023-05-08T03:03:12.974Z,7.07
2023-05-08T03:07:17.081Z,9.32
2023-05-08T03:11:27.042Z,8.65
2023-05-08T03:15:36.210Z,9.40
2023-05-08T03:19:40.694Z,10.30
2023-05-08T03:23:44.375Z,10.32
2023-05-08T03:27:50.149Z,10.50
2023-05-08T03:31:54.030Z,10.77
2023-05-08T03:35:58.677Z,10.43
2023-05-08T03:40:02.414Z,11.02
2023-05-08T03:44:09.036Z,10.60
2023-05-08T03:48:12.725Z,10.65
2023-05-08T03:52:17.649Z,11.20
2023-05-08T03:56:21.056Z,10.15
2023-05-08T04:00:32.670Z,10.82
2023-05-08T04:04:40.668Z,9.55
2023-05-08T04:08:53.938Z,10.68
2023-05-08T04:13:06.510Z,9.95
2023-05-08T04:17:16.730Z,10.25
2023-05-08T04:21:24.169Z,9.60
2023-05-08T04:25:29.160Z,9.80
2023-05-08T04:29:34.029Z,10.00
2023-05-08T04:33:40.221Z,9.05
2023-05-08T04:37:43.792Z,9.85
2023-05-08T04:41:48.002Z,9.10
2023-05-08T04:45:51.115Z,9.55
2023-05-08T04:49:55.414Z,9.32
2023-05-08T04:53:58.282Z,9.18
2023-05-08T04:58:01.327Z,9.48
2023-05-08T05:02:06.079Z,8.88
2023-05-08T05:06:10.415Z,9.50
2023-05-08T05:10:13.245Z,8.95
2023-05-08T05:14:16.552Z,8.98
2023-05-08T05:18:19.433Z,8.82
2023-05-08T05:22:23.667Z,8.85
2023-05-08T05:26:26.478Z,9.02
2023-05-08T05:30:29.381Z,9.20
2023-05-08T05:34:32.344Z,8.43
2023-05-08T05:38:36.638Z,8.73
2023-05-08T05:42:40.560Z,9.88
2023-05-08T05:46:44.606Z,9.35
2023-05-08T05:50:48.018Z,8.73
2023-05-08T05:54:52.220Z,9.25
2023-05-08T05:58:55.033Z,8.25
2023-05-08T06:02:58.455Z,8.60
2023-05-08T06:07:01.409Z,9.43
2023-05-08T06:11:05.627Z,8.95
2023-05-08T06:15:09.862Z,8.63
2023-05-08T06:19:13.364Z,9.13
2023-05-08T06:23:16.203Z,9.43
2023-05-08T06:27:21.012Z,8.32
2023-05-08T06:31:23.921Z,9.40
2023-05-08T06:35:26.828Z,9.02
2023-05-08T06:39:29.571Z,9.48
2023-05-08T06:43:33.726Z,9.45
2023-05-08T06:47:36.668Z,9.07
2023-05-08T06:51:39.499Z,8.32
2023-05-08T06:55:44.166Z,9.88
2023-05-08T06:59:48.383Z,9.23
2023-05-08T07:03:51.283Z,9.75
2023-05-08T07:07:54.705Z,9.77
2023-05-08T07:11:57.493Z,10.25
2023-05-08T07:16:01.655Z,10.45
2023-05-08T07:20:05.274Z,10.65
2023-05-08T07:24:08.393Z,10.02
2023-05-08T07:28:14.501Z,9.68
2023-05-08T07:32:18.797Z,10.82
2023-05-08T07:36:22.763Z,10.85
2023-05-08T07:40:25.506Z,9.73
2023-05-08T07:44:28.274Z,10.32
2023-05-08T07:48:32.437Z,9.80
2023-05-08T07:52:35.238Z,9.95
2023-05-08T07:56:38.008Z,10.80
2023-05-08T08:00:41.143Z,10.27
2023-05-08T08:04:45.642Z,10.20
2023-05-08T08:08:48.430Z,11.10
2023-05-08T08:12:51.339Z,10.23
2023-05-08T08:16:54.196Z,9.88
2023-05-08T08:20:58.380Z,11.20
2023-05-08T08:25:01.220Z,11.45
2023-05-08T08:29:04.491Z,11.75
2023-05-08T08:33:07.378Z,10.02
2023-05-08T08:37:13.986Z,11.38
2023-05-08T08:41:16.848Z,11.63
2023-05-08T08:45:19.681Z,10.55
2023-05-08T08:49:29.606Z,10.77
2023-05-08T08:53:37.869Z,10.13
2023-05-08T08:57:44.452Z,10.68
2023-05-08T09:01:51.380Z,10.32
2023-05-08T09:05:54.911Z,10.88
2023-05-08T09:09:59.834Z,10.55
2023-05-08T09:14:03.465Z,10.82
2023-05-08T09:18:07.039Z,11.68
2023-05-08T09:22:10.776Z,10.45
2023-05-08T09:26:28.158Z,9.90
2023-05-08T09:30:30.968Z,9.93
2023-05-08T09:34:35.120Z,10.63
2023-05-08T09:38:39.289Z,9.20
2023-05-08T09:42:43.882Z,9.48
2023-05-08T09:46:49.582Z,10.00
2023-05-08T09:51:07.267Z,10.73
2023-05-08T09:55:11.989Z,11.52
2023-05-08T09:59:27.239Z,11.07
2023-05-08T10:03:48.333Z,11.30
2023-05-08T10:07:51.321Z,12.15
2023-05-08T10:11:55.592Z,9.75
2023-05-08T10:16:00.118Z,10.63
2023-05-08T10:20:08.401Z,9.82
2023-05-08T10:24:16.000Z,10.38
2023-05-08T10:28:25.217Z,10.63
2023-05-08T10:32:32.540Z,11.20
2023-05-08T10:36:37.133Z,11.60
2023-05-08T10:40:39.952Z,12.07
2023-05-08T10:44:42.860Z,11.95
2023-05-08T10:48:55.384Z,11.90
2023-05-08T10:53:03.489Z,12.77
2023-05-08T10:57:10.625Z,12.48
2023-05-08T11:01:15.959Z,12.57
2023-05-08T11:05:20.964Z,11.87
2023-05-08T11:09:28.027Z,13.55
2023-05-08T11:13:34.558Z,13.02
2023-05-08T11:17:37.578Z,13.05
2023-05-08T11:22:29.113Z,13.85
2023-05-08T11:26:40.570Z,14.30
2023-05-08T11:30:45.537Z,13.63
2023-05-08T11:34:50.425Z,12.77
2023-05-08T11:39:10.848Z,13.02
2023-05-08T11:43:49.705Z,12.93
2023-05-08T11:48:02.847Z,12.80
2023-05-08T11:52:06.547Z,12.88
2023-05-08T11:56:10.833Z,12.45
2023-05-08T12:00:14.858Z,13.35
2023-05-08T12:04:18.084Z,12.57
2023-05-08T12:08:21.087Z,13.18
2023-05-08T12:12:25.289Z,11.50
2023-05-08T12:16:28.169Z,12.40
2023-05-08T12:20:32.615Z,12.98
2023-05-08T12:24:36.570Z,12.20
2023-05-08T12:28:40.822Z,11.90
2023-05-08T12:32:44.934Z,12.73
2023-05-08T12:36:47.729Z,10.63
2023-05-08T12:40:52.904Z,10.82
2023-05-08T12:44:58.501Z,10.97
2023-05-08T12:49:07.203Z,8.00
2023-05-08T12:53:11.507Z,9.80
2023-05-08T12:57:15.104Z,9.57
2023-05-08T13:01:20.799Z,10.20
2023-05-08T13:05:24.569Z,11.15
2023-05-08T13:09:27.417Z,10.98
2023-05-08T13:13:32.165Z,10.63
2023-05-08T13:17:36.394Z,11.30
2023-05-08T13:21:39.208Z,10.55
2023-05-08T13:25:42.575Z,11.30
2023-05-08T13:29:45.431Z,11.13
2023-05-08T13:33:49.559Z,11.60
2023-05-08T13:37:52.523Z,10.98
2023-05-08T13:41:55.291Z,10.13
2023-05-08T13:45:58.421Z,10.50
2023-05-08T13:50:02.933Z,11.48
2023-05-08T13:54:05.771Z,11.40
2023-05-08T13:58:08.666Z,11.77
2023-05-08T14:02:11.628Z,12.27
2023-05-08T14:06:15.898Z,11.57
2023-05-08T14:10:18.855Z,11.98
2023-05-08T14:14:21.682Z,11.65
2023-05-08T14:18:24.422Z,12.57
2023-05-08T14:22:28.682Z,11.55
2023-05-08T14:26:31.481Z,11.32
2023-05-08T14:30:34.303Z,11.85
2023-05-08T14:34:37.076Z,11.80
2023-05-08T14:38:41.454Z,10.50
2023-05-08T14:42:44.253Z,12.00
2023-05-08T14:46:47.750Z,11.40
2023-05-08T14:50:51.860Z,10.00
2023-05-08T14:54:56.113Z,10.10
2023-05-08T14:58:58.975Z,8.13
2023-05-08T15:03:01.914Z,8.90
2023-05-08T15:07:05.348Z,9.95
2023-05-08T15:11:09.546Z,9.63
2023-05-08T15:15:12.520Z,7.78
2023-05-08T15:19:15.451Z,7.18
2023-05-08T15:23:20.265Z,7.93
2023-05-08T15:27:24.391Z,8.25
2023-05-08T15:31:27.234Z,9.55
2023-05-08T15:35:30.147Z,9.52
2023-05-08T15:39:35.988Z,9.93
2023-05-08T15:43:40.173Z,10.50
2023-05-08T15:47:43.024Z,12.27
2023-05-08T15:51:45.793Z,11.25
2023-05-08T15:55:48.697Z,11.65
2023-05-08T15:59:52.862Z,13.05
2023-05-08T16:03:55.711Z,12.18
2023-05-08T16:07:58.499Z,12.40
2023-05-08T16:12:01.343Z,12.68
2023-05-08T16:16:06.403Z,11.48
2023-05-08T16:20:11.790Z,12.05
2023-05-08T16:24:14.688Z,12.80
2023-05-08T16:28:40.221Z,12.40
2023-05-08T16:32:45.600Z,12.25
2023-05-08T16:36:48.445Z,12.50
2023-05-08T16:40:51.237Z,11.60
2023-05-08T16:44:53.999Z,10.80
2023-05-08T16:48:58.184Z,9.15
2023-05-08T16:53:01.079Z,8.85
2023-05-08T16:57:04.659Z,9.60
2023-05-08T17:01:12.154Z,9.75
2023-05-08T17:05:17.796Z,10.45
2023-05-08T17:09:20.551Z,10.70
2023-05-08T17:13:23.427Z,10.45
2023-05-08T17:17:26.228Z,10.25
2023-05-08T17:21:32.073Z,9.93
2023-05-08T17:25:35.039Z,10.65
2023-05-08T17:29:37.852Z,10.65
2023-05-08T17:33:40.653Z,9.95
2023-05-08T17:37:44.896Z,10.15
2023-05-08T17:41:47.949Z,10.93
2023-05-08T17:45:50.767Z,10.70
2023-05-08T17:49:53.821Z,11.57
2023-05-08T17:53:57.995Z,11.63
2023-05-08T17:58:00.971Z,10.13
2023-05-08T18:02:03.878Z,10.70
2023-05-08T18:06:06.959Z,10.68
2023-05-08T18:10:12.223Z,10.73
2023-05-08T18:14:15.125Z,10.77
2023-05-08T18:18:17.983Z,11.75
2023-05-08T18:22:20.762Z,11.15
2023-05-08T18:26:24.956Z,11.07
2023-05-08T18:30:27.826Z,11.18
2023-05-08T18:34:31.836Z,12.27
2023-05-08T18:38:34.959Z,11.93
2023-05-08T18:42:39.157Z,12.77
2023-05-08T18:46:42.045Z,13.25
2023-05-08T18:50:44.868Z,13.70
2023-05-08T18:54:47.697Z,12.82
2023-05-08T18:58:51.879Z,13.18
2023-05-08T19:02:54.738Z,12.60
2023-05-08T19:06:57.586Z,14.35
2023-05-08T19:11:00.359Z,13.65
2023-05-08T19:15:04.794Z,13.13
2023-05-08T19:19:07.665Z,13.00
2023-05-08T19:23:10.532Z,13.13
2023-05-08T19:27:13.329Z,13.38
2023-05-08T19:31:17.558Z,13.10
2023-05-08T19:35:21.142Z,12.95
2023-05-08T19:39:23.996Z,12.38
2023-05-08T19:43:26.976Z,13.60
2023-05-08T19:47:31.188Z,13.10
2023-05-08T19:51:34.488Z,14.20
2023-05-08T19:55:37.770Z,12.85
2023-05-08T19:59:40.520Z,12.20
2023-05-08T20:03:44.724Z,13.68
2023-05-08T20:07:47.634Z,15.00
2023-05-08T20:11:50.454Z,13.85
2023-05-08T20:16:16.030Z,13.88
2023-05-08T20:20:20.423Z,14.23
2023-05-08T20:24:23.381Z,13.65
2023-05-08T20:28:26.383Z,14.40
2023-05-08T20:32:29.448Z,14.10
2023-05-08T20:36:33.917Z,13.88
2023-05-08T20:40:37.284Z,16.45
2023-05-08T20:44:40.321Z,13.52
2023-05-08T20:48:43.776Z,13.38
2023-05-08T20:52:48.136Z,15.30
2023-05-08T20:56:51.154Z,14.38
2023-05-08T21:00:54.238Z,15.02
2023-05-08T21:04:57.274Z,15.52
2023-05-08T21:09:01.617Z,16.30
2023-05-08T21:13:05.430Z,16.60
2023-05-08T21:17:08.500Z,17.85
2023-05-08T21:21:19.318Z,17.40
2023-05-08T21:25:23.872Z,18.23
2023-05-08T21:29:26.962Z,17.98
2023-05-08T21:33:30.409Z,17.33
2023-05-08T21:37:33.439Z,17.05
2023-05-08T21:41:37.808Z,17.52
2023-05-08T21:45:40.771Z,17.70
2023-05-08T21:49:43.792Z,18.98
2023-05-08T21:53:46.802Z,19.85
2023-05-08T21:57:51.219Z,19.77
2023-05-08T22:01:54.415Z,18.90
2023-05-08T22:05:57.459Z,18.67
2023-05-08T22:10:00.683Z,18.67
2023-05-08T22:14:05.089Z,19.52
2023-05-08T22:18:08.186Z,17.88
2023-05-08T22:22:11.159Z,20.35
2023-05-08T22:26:14.202Z,20.23
2023-05-08T22:30:18.575Z,20.38
2023-05-08T22:34:21.552Z,19.08
2023-05-08T22:38:24.469Z,17.63
2023-05-08T22:42:27.540Z,13.80
2023-05-08T22:46:33.688Z,13.45
2023-05-08T22:50:36.929Z,14.90
2023-05-08T22:54:39.885Z,15.13
2023-05-08T22:58:42.865Z,15.20
2023-05-08T23:02:47.290Z,14.35
2023-05-08T23:06:50.300Z,14.20
2023-05-08T23:10:53.335Z,17.15
2023-05-08T23:14:56.356Z,17.10
2023-05-08T23:19:00.597Z,17.08
2023-05-08T23:23:03.437Z,17.00
2023-05-08T23:27:06.293Z,16.30
2023-05-08T23:31:09.128Z,15.25
2023-05-08T23:35:13.697Z,15.63
2023-05-08T23:39:16.678Z,17.20
2023-05-08T23:43:19.537Z,17.50
2023-05-08T23:47:22.530Z,16.35
2023-05-08T23:51:26.710Z,16.55
2023-05-08T23:55:31.143Z,17.38
2023-05-08T23:59:33.935Z,18.13
